Time;durP1;ratioP1;P1;durP2;ratioP2;P2;SDS_P1;SDS_P2;PMS_P1;PMS_P2;Temp;Humidity;BMP_temperature;BMP_pressure;BME280_temperature;BME280_humidity;BME280_pressure;Samples;Min_cycle;Max_cycle;Signal;HPM_P1;HPM_P2
2020/12/31 00:01:23;;;;;;;67.37;33.13;;;4.60;99.90;;;;;;4922953;29;20231;-95
2020/12/31 00:03:49;;;;;;;66.70;32.83;;;4.60;99.90;;;;;;4907284;29;20191;-95
2020/12/31 00:06:15;;;;;;;70.03;33.53;;;4.70;99.90;;;;;;4922585;29;20199;-95
2020/12/31 00:08:40;;;;;;;72.77;33.30;;;5.70;99.90;;;;;;4922746;29;20189;-95
2020/12/31 00:11:06;;;;;;;64.73;32.33;;;4.60;99.90;;;;;;4922554;29;20193;-95
2020/12/31 00:13:32;;;;;;;65.90;31.70;;;4.60;99.90;;;;;;4939854;29;20314;-95
2020/12/31 00:15:58;;;;;;;68.07;33.00;;;4.60;99.90;;;;;;4922771;29;20186;-96
2020/12/31 00:18:25;;;;;;;69.73;32.13;;;4.60;99.90;;;;;;4922636;29;20271;-94
2020/12/31 00:20:50;;;;;;;71.47;33.87;;;4.60;99.90;;;;;;4940334;29;20235;-93
2020/12/31 00:23:16;;;;;;;75.90;33.17;;;4.60;99.90;;;;;;4924038;29;20572;-93
2020/12/31 00:25:50;;;;;;;68.97;33.60;;;4.60;99.90;;;;;;4921513;29;20187;-92
2020/12/31 00:28:17;;;;;;;69.80;34.77;;;4.60;99.90;;;;;;4921078;29;20198;-93
2020/12/31 00:30:44;;;;;;;68.93;33.70;;;4.50;99.90;;;;;;4921887;29;20198;-93
2020/12/31 00:33:14;;;;;;;66.83;32.40;;;4.50;99.90;;;;;;4938121;29;20270;-94
2020/12/31 00:35:42;;;;;;;70.87;32.63;;;4.50;99.90;;;;;;4938920;29;20632;-94
2020/12/31 00:38:07;;;;;;;67.27;32.23;;;4.50;99.90;;;;;;4938596;29;20187;-90
2020/12/31 00:40:34;;;;;;;72.17;34.13;;;4.60;99.90;;;;;;4906089;29;20210;-94
2020/12/31 00:43:01;;;;;;;64.73;33.67;;;4.50;99.90;;;;;;4921884;29;20240;-95
2020/12/31 00:45:27;;;;;;;66.07;33.00;;;4.50;99.90;;;;;;4921964;29;20192;-95
2020/12/31 00:47:53;;;;;;;67.20;32.90;;;4.50;99.90;;;;;;4921174;29;20189;-95
2020/12/31 00:50:19;;;;;;;64.10;32.47;;;4.50;99.90;;;;;;4920805;29;20190;-94
2020/12/31 00:52:45;;;;;;;60.13;31.53;;;4.50;99.90;;;;;;4937569;29;20217;-94
2020/12/31 00:55:10;;;;;;;66.03;31.93;;;4.50;99.90;;;;;;4937298;29;20213;-93
2020/12/31 00:57:36;;;;;;;65.07;31.93;;;4.50;99.90;;;;;;4921012;29;20246;-94
2020/12/31 01:00:05;;;;;;;67.80;31.90;;;4.50;99.90;;;;;;4920985;29;20187;-94
2020/12/31 01:02:31;;;;;;;70.13;34.70;;;4.50;99.90;;;;;;4937433;29;20643;-94
2020/12/31 01:04:56;;;;;;;70.20;32.90;;;4.50;99.90;;;;;;4920588;29;20268;-94
2020/12/31 01:07:22;;;;;;;67.60;34.03;;;4.50;99.90;;;;;;4888905;29;20197;-92
2020/12/31 01:09:48;;;;;;;66.47;32.40;;;4.60;99.90;;;;;;4920227;29;20190;-94
2020/12/31 01:12:13;;;;;;;71.27;32.70;;;4.60;99.90;;;;;;4920115;29;20216;-93
2020/12/31 01:14:39;;;;;;;67.93;31.40;;;4.60;99.90;;;;;;4937707;29;20193;-94
2020/12/31 01:17:04;;;;;;;67.73;30.43;;;4.60;99.90;;;;;;4920958;29;20197;-95
2020/12/31 01:19:30;;;;;;;68.20;30.70;;;4.60;99.90;;;;;;4904629;29;20350;-93
2020/12/31 01:21:56;;;;;;;66.43;31.63;;;4.70;99.90;;;;;;4920766;29;20198;-95
2020/12/31 01:24:21;;;;;;;69.40;31.17;;;4.60;99.90;;;;;;4904255;29;20206;-94
2020/12/31 01:26:47;;;;;;;66.40;31.77;;;4.60;99.90;;;;;;4904750;29;20191;-95
2020/12/31 01:29:13;;;;;;;62.60;29.37;;;4.60;99.90;;;;;;4905047;29;20193;-94
2020/12/31 01:31:38;;;;;;;68.60;29.67;;;4.60;99.90;;;;;;4920982;29;20221;-94
2020/12/31 01:34:06;;;;;;;73.70;31.63;;;4.60;99.90;;;;;;4905056;29;20241;-95
2020/12/31 01:36:33;;;;;;;83.30;33.03;;;4.60;99.90;;;;;;4937333;29;20315;-93
2020/12/31 01:38:59;;;;;;;69.80;32.57;;;4.60;99.90;;;;;;4936595;29;20213;-95
2020/12/31 01:41:26;;;;;;;62.20;29.77;;;4.60;99.90;;;;;;4920662;29;20204;-94
2020/12/31 01:44:09;;;;;;;65.33;28.80;;;4.60;99.90;;;;;;4920903;29;20268;-94
2020/12/31 01:46:37;;;;;;;69.67;29.03;;;4.60;99.90;;;;;;4937337;29;20181;-96
2020/12/31 01:49:06;;;;;;;60.97;29.97;;;4.50;99.90;;;;;;4937781;29;20260;-95
2020/12/31 01:51:34;;;;;;;65.67;30.50;;;4.50;99.90;;;;;;4937185;29;20199;-94
2020/12/31 01:54:00;;;;;;;62.73;30.33;;;4.50;99.90;;;;;;4937165;29;20189;-95
2020/12/31 01:56:33;;;;;;;61.97;29.90;;;4.60;99.90;;;;;;4920433;29;20233;-96
2020/12/31 01:59:00;;;;;;;59.30;28.77;;;4.50;99.90;;;;;;4937579;29;20179;-96
2020/12/31 02:01:27;;;;;;;61.47;28.30;;;4.60;99.90;;;;;;4937372;29;20183;-96
2020/12/31 02:03:54;;;;;;;56.07;29.50;;;4.50;99.90;;;;;;4937886;29;20191;-94
2020/12/31 02:06:27;;;;;;;56.93;28.10;;;4.60;99.90;;;;;;4937251;29;20658;-94
2020/12/31 02:08:54;;;;;;;55.13;27.43;;;4.60;99.90;;;;;;4920678;29;20261;-96
2020/12/31 02:11:22;;;;;;;60.40;29.37;;;4.60;99.90;;;;;;4904560;29;20269;-94
2020/12/31 02:13:48;;;;;;;60.17;28.10;;;4.50;99.90;;;;;;4937164;29;20273;-95
2020/12/31 02:16:19;;;;;;;60.83;28.60;;;4.50;99.90;;;;;;4920297;29;20205;-96
2020/12/31 02:18:49;;;;;;;58.87;27.83;;;4.60;99.90;;;;;;4920565;29;20206;-96
2020/12/31 02:21:18;;;;;;;58.30;29.00;;;4.60;99.90;;;;;;4937281;29;20239;-95
2020/12/31 02:23:43;;;;;;;66.43;29.57;;;4.50;99.90;;;;;;4936758;29;20256;-96
2020/12/31 02:26:09;;;;;;;63.33;30.83;;;4.50;99.90;;;;;;4937174;29;20246;-96
2020/12/31 02:28:34;;;;;;;64.10;30.43;;;5.70;99.90;;;;;;4936698;29;20191;-95
2020/12/31 02:31:00;;;;;;;62.70;28.47;;;4.70;99.90;;;;;;4904259;29;20186;-95
2020/12/31 02:33:26;;;;;;;66.10;29.83;;;4.60;99.90;;;;;;4936526;29;20218;-95
2020/12/31 02:35:51;;;;;;;60.47;30.20;;;4.60;99.90;;;;;;4920089;29;20655;-94
2020/12/31 02:38:17;;;;;;;63.17;28.33;;;4.60;99.90;;;;;;4919795;29;20198;-96
2020/12/31 02:40:42;;;;;;;60.37;28.20;;;4.60;99.90;;;;;;4936242;29;20186;-95
2020/12/31 02:43:08;;;;;;;56.07;28.47;;;4.50;99.90;;;;;;4904151;29;20190;-95
2020/12/31 02:45:34;;;;;;;57.87;27.03;;;4.60;99.90;;;;;;4903968;29;20197;-95
2020/12/31 02:47:59;;;;;;;58.90;26.97;;;4.60;99.90;;;;;;4904111;29;20189;-95
2020/12/31 02:50:25;;;;;;;53.80;25.87;;;4.60;99.90;;;;;;4919152;29;20196;-94
2020/12/31 02:52:51;;;;;;;56.40;27.27;;;4.60;99.90;;;;;;4903922;29;20225;-96
2020/12/31 02:55:16;;;;;;;59.20;28.30;;;4.60;99.90;;;;;;4919759;29;20192;-95
2020/12/31 02:57:42;;;;;;;64.83;29.93;;;4.60;99.90;;;;;;4936197;29;20193;-95
2020/12/31 03:00:07;;;;;;;70.13;29.33;;;4.70;99.90;;;;;;4936602;29;20690;-95
2020/12/31 03:02:33;;;;;;;72.27;28.63;;;4.60;99.90;;;;;;4919644;29;20191;-94
2020/12/31 03:04:59;;;;;;;63.27;27.90;;;4.60;99.90;;;;;;4936600;29;20187;-95
2020/12/31 03:07:24;;;;;;;67.93;27.17;;;4.70;99.90;;;;;;4919812;29;20663;-95
2020/12/31 03:09:51;;;;;;;68.50;29.30;;;5.50;99.90;;;;;;4919399;29;20234;-95
2020/12/31 03:12:16;;;;;;;66.20;29.33;;;4.50;99.90;;;;;;4919594;29;20309;-95
2020/12/31 03:14:42;;;;;;;68.70;29.23;;;4.50;99.90;;;;;;4919294;29;20215;-95
2020/12/31 03:17:08;;;;;;;60.60;29.03;;;4.50;99.90;;;;;;4936626;29;20190;-95
2020/12/31 03:19:33;;;;;;;59.10;27.20;;;4.50;99.90;;;;;;4935974;29;20191;-94
2020/12/31 03:21:59;;;;;;;59.43;27.77;;;4.50;99.90;;;;;;4903961;29;20184;-94
2020/12/31 03:24:24;;;;;;;69.63;30.97;;;4.50;99.90;;;;;;4919364;29;20202;-94
2020/12/31 03:26:50;;;;;;;68.63;29.10;;;4.50;99.90;;;;;;4903069;29;20541;-94
2020/12/31 03:29:16;;;;;;;71.80;31.20;;;4.50;99.90;;;;;;4919556;29;20213;-95
2020/12/31 03:31:41;;;;;;;64.53;28.00;;;4.50;99.90;;;;;;4919073;29;20267;-95
2020/12/31 03:34:07;;;;;;;62.50;28.20;;;4.50;99.90;;;;;;4936138;29;20197;-95
2020/12/31 03:36:33;;;;;;;66.60;29.10;;;4.50;99.90;;;;;;4919342;29;20190;-95
2020/12/31 03:38:59;;;;;;;67.10;28.40;;;4.40;99.90;;;;;;4936533;29;20576;-95
2020/12/31 03:41:24;;;;;;;65.83;29.63;;;4.40;99.90;;;;;;4936258;29;20190;-96
2020/12/31 03:43:50;;;;;;;76.40;31.17;;;4.50;99.90;;;;;;4887717;29;20257;-95
2020/12/31 03:46:16;;;;;;;78.73;31.13;;;4.40;99.90;;;;;;4919352;29;20231;-94
2020/12/31 03:48:41;;;;;;;69.23;28.23;;;4.40;99.90;;;;;;4919135;29;20187;-95
2020/12/31 03:51:07;;;;;;;75.97;28.83;;;4.30;99.90;;;;;;4936034;29;20267;-95
2020/12/31 03:53:33;;;;;;;73.50;30.63;;;4.40;99.90;;;;;;4918796;29;20223;-93
2020/12/31 03:55:58;;;;;;;89.30;32.13;;;4.40;99.90;;;;;;4918740;29;20195;-95
2020/12/31 03:58:24;;;;;;;77.57;29.40;;;4.50;99.90;;;;;;4936101;29;20181;-96
2020/12/31 04:00:49;;;;;;;81.27;31.17;;;4.40;99.90;;;;;;4935669;29;20613;-94
2020/12/31 04:03:15;;;;;;;81.67;31.23;;;4.40;99.90;;;;;;4921808;29;20200;-95
2020/12/31 04:05:40;;;;;;;81.30;31.00;;;4.40;99.90;;;;;;4906188;29;20246;-93
2020/12/31 04:08:06;;;;;;;79.77;29.83;;;4.40;99.90;;;;;;4922529;29;20545;-95
2020/12/31 04:10:32;;;;;;;71.90;28.47;;;4.40;99.90;;;;;;4922299;29;20193;-95
2020/12/31 04:12:57;;;;;;;69.87;28.30;;;4.40;99.90;;;;;;4921532;29;20228;-94
2020/12/31 04:15:23;;;;;;;79.13;32.87;;;4.40;99.90;;;;;;4938888;29;20206;-96
2020/12/31 04:17:48;;;;;;;68.40;29.30;;;4.40;99.90;;;;;;4922101;29;20587;-95
2020/12/31 04:20:14;;;;;;;82.83;31.33;;;4.50;99.90;;;;;;4938598;29;20734;-92
2020/12/31 04:22:40;;;;;;;72.43;28.73;;;4.60;99.90;;;;;;4938048;29;20652;-92
2020/12/31 04:25:05;;;;;;;67.43;28.47;;;4.40;99.90;;;;;;4905847;29;20194;-94
2020/12/31 04:27:31;;;;;;;84.73;35.03;;;4.50;99.90;;;;;;4921520;29;20187;-94
2020/12/31 04:29:57;;;;;;;72.87;28.23;;;4.40;99.90;;;;;;4921404;29;20680;-95
2020/12/31 04:35:44;;;;;;;68.57;29.63;;;4.40;99.90;;;;;;5173970;23;20251;-93
2020/12/31 04:38:10;;;;;;;71.33;28.10;;;4.30;99.90;;;;;;4938958;29;20541;-92
2020/12/31 04:40:42;;;;;;;74.23;31.67;;;5.50;99.90;;;;;;4938834;29;20280;-92
2020/12/31 04:43:09;;;;;;;82.93;32.63;;;4.30;99.90;;;;;;4937023;29;20687;-92
2020/12/31 04:45:39;;;;;;;77.37;29.03;;;4.30;99.90;;;;;;4920836;29;20289;-93
2020/12/31 04:48:27;;;;;;;71.10;28.77;;;4.30;99.90;;;;;;4938220;29;20187;-92
2020/12/31 04:50:56;;;;;;;77.17;30.07;;;4.30;99.90;;;;;;4937023;29;20188;-92
2020/12/31 04:53:23;;;;;;;88.63;33.37;;;4.30;99.90;;;;;;4937473;29;20220;-91
2020/12/31 04:55:48;;;;;;;74.83;30.53;;;4.30;99.90;;;;;;4936424;29;20195;-91
2020/12/31 04:58:16;;;;;;;78.93;28.00;;;4.20;99.90;;;;;;4905619;29;20241;-92
2020/12/31 05:00:43;;;;;;;68.80;28.93;;;4.20;99.90;;;;;;4939510;29;20180;-95
2020/12/31 05:03:09;;;;;;;75.43;30.83;;;4.30;99.90;;;;;;4921787;29;20650;-95
2020/12/31 05:05:36;;;;;;;66.80;27.80;;;4.30;99.90;;;;;;4937152;29;20193;-94
2020/12/31 05:08:04;;;;;;;68.13;27.87;;;4.30;99.90;;;;;;4937695;29;20537;-95
2020/12/31 05:10:30;;;;;;;71.47;27.07;;;4.20;99.90;;;;;;4937028;29;20238;-95
2020/12/31 05:13:00;;;;;;;69.57;28.07;;;4.20;99.90;;;;;;4936810;29;20217;-95
2020/12/31 05:15:42;;;;;;;84.93;34.07;;;4.10;99.90;;;;;;4936773;29;20612;-94
2020/12/31 05:18:22;;;;;;;74.37;30.03;;;4.30;99.90;;;;;;4938210;29;20703;-95
2020/12/31 05:20:55;;;;;;;75.53;30.90;;;4.20;99.90;;;;;;4938130;29;20266;-96
2020/12/31 05:23:26;;;;;;;74.60;28.67;;;4.20;99.90;;;;;;4911526;29;20739;-95
2020/12/31 05:25:53;;;;;;;73.90;28.57;;;4.30;99.90;;;;;;4927004;29;20277;-95
2020/12/31 05:28:37;;;;;;;77.07;30.80;;;4.20;99.90;;;;;;4938904;29;20271;-94
2020/12/31 05:31:11;;;;;;;76.83;29.10;;;4.20;99.90;;;;;;4941442;29;20628;-93
2020/12/31 05:33:41;;;;;;;80.43;29.77;;;4.40;99.90;;;;;;4958790;29;20191;-90
2020/12/31 05:36:19;;;;;;;75.27;28.17;;;4.30;99.90;;;;;;4959539;29;20250;-89
2020/12/31 05:39:00;;;;;;;79.80;28.50;;;4.20;99.90;;;;;;4958566;29;20795;-89
2020/12/31 05:41:29;;;;;;;81.73;30.57;;;4.20;99.90;;;;;;4952060;29;20186;-93
2020/12/31 05:44:00;;;;;;;72.40;27.07;;;4.20;99.90;;;;;;4923126;29;20194;-93
2020/12/31 05:46:27;;;;;;;70.30;28.07;;;4.20;99.90;;;;;;4911696;29;20194;-87
2020/12/31 05:48:56;;;;;;;67.10;24.73;;;4.20;99.90;;;;;;4954971;29;20195;-90
2020/12/31 05:51:26;;;;;;;71.47;25.57;;;4.20;99.90;;;;;;4957934;29;20660;-89
2020/12/31 05:53:52;;;;;;;73.47;25.70;;;4.30;99.90;;;;;;4958221;29;20185;-95
2020/12/31 05:56:20;;;;;;;65.00;26.43;;;4.60;99.90;;;;;;4920248;29;20180;-93
2020/12/31 05:58:50;;;;;;;67.83;26.17;;;4.20;99.90;;;;;;4935711;29;20549;-93
2020/12/31 06:01:18;;;;;;;67.10;24.90;;;4.20;99.90;;;;;;4937421;29;20190;-94
2020/12/31 06:03:50;;;;;;;69.67;24.50;;;4.30;99.90;;;;;;4936839;29;20281;-95
2020/12/31 06:06:20;;;;;;;73.33;30.00;;;4.20;99.90;;;;;;4936290;29;20584;-94
2020/12/31 06:09:02;;;;;;;64.13;26.73;;;4.20;99.90;;;;;;4935317;29;20180;-93
2020/12/31 06:11:37;;;;;;;67.47;26.10;;;4.30;99.90;;;;;;4937087;29;20175;-95
2020/12/31 06:14:05;;;;;;;61.40;24.60;;;4.20;99.90;;;;;;4936851;29;20183;-95
2020/12/31 06:16:38;;;;;;;62.93;24.57;;;4.20;99.90;;;;;;4938206;29;20185;-94
2020/12/31 06:19:27;;;;;;;71.33;28.10;;;4.20;99.90;;;;;;4940356;29;20182;-95
2020/12/31 06:22:02;;;;;;;72.90;27.20;;;4.20;99.90;;;;;;4931752;29;20651;-91
2020/12/31 06:24:42;;;;;;;70.47;25.27;;;4.20;99.90;;;;;;4935547;29;20240;-94
2020/12/31 06:27:11;;;;;;;72.30;26.30;;;4.20;99.90;;;;;;4919007;29;20217;-95
2020/12/31 06:29:48;;;;;;;82.23;31.00;;;4.30;99.90;;;;;;4935041;29;20174;-94
2020/12/31 06:32:19;;;;;;;64.50;26.63;;;4.30;99.90;;;;;;4935599;29;20219;-95
2020/12/31 06:34:46;;;;;;;70.30;28.50;;;4.20;99.90;;;;;;4918584;29;20180;-93
2020/12/31 06:37:12;;;;;;;78.50;30.20;;;4.20;99.90;;;;;;4914453;29;20336;-94
2020/12/31 06:39:40;;;;;;;85.63;30.87;;;4.20;99.90;;;;;;4934663;29;20186;-94
2020/12/31 06:42:05;;;;;;;83.23;30.93;;;4.20;99.90;;;;;;4966336;28;20198;-92
2020/12/31 06:44:31;;;;;;;72.10;28.37;;;4.20;99.90;;;;;;4950581;28;20188;-94
2020/12/31 06:46:58;;;;;;;75.20;28.90;;;4.60;99.90;;;;;;4966758;28;20204;-95
2020/12/31 06:49:51;;;;;;;68.23;27.77;;;4.20;99.90;;;;;;4935663;29;20221;-94
2020/12/31 06:52:23;;;;;;;68.80;26.50;;;4.20;99.90;;;;;;4936085;29;20212;-95
2020/12/31 06:54:50;;;;;;;70.27;28.87;;;4.20;99.90;;;;;;4936659;29;20175;-96
2020/12/31 06:57:38;;;;;;;84.40;31.90;;;4.20;99.90;;;;;;4936985;29;20249;-95
2020/12/31 07:00:05;;;;;;;79.83;30.20;;;4.20;99.90;;;;;;4944170;29;20722;-94
2020/12/31 07:02:44;;;;;;;74.47;29.47;;;4.20;99.90;;;;;;4943623;29;20195;-93
2020/12/31 07:05:21;;;;;;;81.30;28.77;;;4.20;99.90;;;;;;4937359;29;20182;-94
2020/12/31 07:07:47;;;;;;;80.00;30.87;;;4.20;99.90;;;;;;4935737;29;20679;-94
2020/12/31 07:10:12;;;;;;;74.50;29.93;;;4.10;99.90;;;;;;4936852;29;20175;-94
2020/12/31 07:12:46;;;;;;;65.43;26.70;;;4.20;99.90;;;;;;4951409;28;20222;-94
2020/12/31 07:15:17;;;;;;;62.90;25.47;;;4.10;99.90;;;;;;4935677;29;20655;-94
2020/12/31 07:17:44;;;;;;;62.27;25.43;;;4.10;99.90;;;;;;4937995;29;20216;-96
2020/12/31 07:20:19;;;;;;;70.00;26.60;;;4.10;99.90;;;;;;4937548;29;20174;-95
2020/12/31 07:22:47;;;;;;;66.73;27.00;;;4.10;99.90;;;;;;4939844;29;20248;-96
2020/12/31 07:25:15;;;;;;;62.73;25.03;;;4.10;99.90;;;;;;4947592;29;20224;-94
2020/12/31 07:27:46;;;;;;;64.03;26.47;;;4.10;99.90;;;;;;4936833;29;20198;-94
2020/12/31 07:30:21;;;;;;;84.90;34.77;;;4.20;99.90;;;;;;4969250;28;20183;-96
2020/12/31 07:32:47;;;;;;;76.47;31.47;;;4.20;99.90;;;;;;4937473;29;20297;-96
2020/12/31 07:35:32;;;;;;;68.33;28.30;;;4.20;99.90;;;;;;4939929;29;20182;-96
2020/12/31 07:38:07;;;;;;;73.87;27.97;;;4.20;99.90;;;;;;4939319;29;20218;-96
2020/12/31 07:40:36;;;;;;;78.03;29.50;;;4.10;99.90;;;;;;4940231;29;20810;-96
2020/12/31 07:43:03;;;;;;;66.83;27.57;;;4.10;99.90;;;;;;4943115;29;20302;-96
2020/12/31 07:45:31;;;;;;;74.67;31.00;;;4.10;99.90;;;;;;4940550;29;20186;-96
2020/12/31 07:47:57;;;;;;;71.07;27.67;;;4.20;99.90;;;;;;4980073;28;20184;-96
2020/12/31 07:50:24;;;;;;;79.70;32.47;;;4.10;99.90;;;;;;4943673;29;20176;-96
2020/12/31 07:52:50;;;;;;;70.07;26.70;;;4.20;99.90;;;;;;4944732;29;20217;-96
2020/12/31 07:55:16;;;;;;;69.53;28.50;;;4.20;99.90;;;;;;4960148;28;20682;-94
2020/12/31 07:57:42;;;;;;;71.73;30.03;;;4.10;99.90;;;;;;4958577;28;20211;-95
2020/12/31 08:00:19;;;;;;;68.90;28.40;;;4.20;99.90;;;;;;4958979;28;20249;-94
2020/12/31 08:02:45;;;;;;;65.80;27.87;;;4.20;99.90;;;;;;4963482;29;20199;-95
2020/12/31 08:05:16;;;;;;;66.50;26.50;;;4.20;99.90;;;;;;4954051;29;20181;-94
2020/12/31 08:07:42;;;;;;;79.63;34.77;;;4.20;99.90;;;;;;4919846;29;20199;-94
2020/12/31 08:10:09;;;;;;;66.27;26.43;;;4.20;99.90;;;;;;4938310;28;20230;-95
2020/12/31 08:12:38;;;;;;;64.17;24.80;;;4.20;99.90;;;;;;4947886;29;20687;-95
2020/12/31 08:15:04;;;;;;;56.23;23.73;;;4.20;99.90;;;;;;4951242;29;20176;-95
2020/12/31 08:17:30;;;;;;;57.93;22.77;;;4.30;99.90;;;;;;4959604;29;20718;-93
2020/12/31 08:19:55;;;;;;;53.30;21.47;;;4.20;99.90;;;;;;4959436;28;20185;-96
2020/12/31 08:22:39;;;;;;;50.60;22.00;;;4.30;99.90;;;;;;4959344;29;20192;-95
2020/12/31 08:25:10;;;;;;;50.80;21.27;;;4.20;99.90;;;;;;4958573;29;20198;-95
2020/12/31 08:27:40;;;;;;;54.80;22.30;;;4.20;99.90;;;;;;4962546;29;20211;-96
2020/12/31 08:30:09;;;;;;;78.37;30.07;;;4.20;99.90;;;;;;4961953;29;20194;-96
2020/12/31 08:32:58;;;;;;;67.20;29.80;;;4.20;99.90;;;;;;4947743;29;20224;-93
2020/12/31 08:35:28;;;;;;;63.27;27.33;;;4.30;99.90;;;;;;4943034;28;20205;-93
2020/12/31 08:38:12;;;;;;;57.20;25.30;;;4.60;99.90;;;;;;4937547;29;20193;-95
2020/12/31 08:40:52;;;;;;;62.27;26.13;;;4.30;99.90;;;;;;4945509;29;20179;-92
2020/12/31 08:43:22;;;;;;;51.47;23.33;;;4.30;99.90;;;;;;4946113;29;20191;-95
2020/12/31 08:45:52;;;;;;;54.23;25.77;;;4.30;99.90;;;;;;4945367;29;20188;-95
2020/12/31 08:48:27;;;;;;;60.13;26.13;;;4.30;99.90;;;;;;4929109;29;20189;-93
2020/12/31 08:51:12;;;;;;;59.10;26.00;;;4.40;99.90;;;;;;4916755;29;20675;-93
2020/12/31 08:53:54;;;;;;;58.20;25.87;;;4.30;99.90;;;;;;4917024;29;20252;-91
2020/12/31 08:56:23;;;;;;;64.47;26.07;;;4.40;99.90;;;;;;4919285;29;20250;-93
2020/12/31 08:58:49;;;;;;;54.20;23.37;;;4.30;99.90;;;;;;4920564;29;20197;-91
2020/12/31 09:01:24;;;;;;;57.57;24.70;;;4.30;99.90;;;;;;4936378;29;20215;-93
2020/12/31 09:03:50;;;;;;;57.80;22.33;;;4.30;99.90;;;;;;4946858;29;20190;-93
2020/12/31 09:06:25;;;;;;;54.57;22.37;;;4.30;99.90;;;;;;4916285;29;20190;-95
2020/12/31 09:08:52;;;;;;;60.33;24.47;;;4.30;99.90;;;;;;4945374;29;20645;-94
2020/12/31 09:11:25;;;;;;;60.50;24.73;;;4.20;99.90;;;;;;4931591;29;20541;-96
2020/12/31 09:13:51;;;;;;;58.57;24.20;;;4.30;99.90;;;;;;4948470;29;20213;-95
2020/12/31 09:16:16;;;;;;;63.77;24.30;;;4.20;99.90;;;;;;4949940;29;20269;-96
2020/12/31 09:18:43;;;;;;;62.77;24.77;;;4.30;99.90;;;;;;4943029;29;20190;-95
2020/12/31 09:21:10;;;;;;;65.87;25.83;;;4.10;99.90;;;;;;4940222;29;20191;-95
2020/12/31 09:23:37;;;;;;;66.67;26.70;;;4.20;99.90;;;;;;4941281;29;20659;-96
2020/12/31 09:26:03;;;;;;;61.30;26.73;;;4.40;99.90;;;;;;4960258;29;20184;-96
2020/12/31 09:28:30;;;;;;;63.77;24.67;;;4.30;99.90;;;;;;4950641;28;20190;-96
2020/12/31 09:30:56;;;;;;;59.23;25.83;;;4.30;99.90;;;;;;4943766;29;20285;-96
2020/12/31 09:33:24;;;;;;;67.10;27.70;;;4.40;99.90;;;;;;4942433;29;20216;-96
2020/12/31 09:35:50;;;;;;;61.73;24.50;;;4.50;99.90;;;;;;4925409;29;20240;-92
2020/12/31 09:38:16;;;;;;;56.60;24.03;;;4.40;99.90;;;;;;4944514;29;20214;-95
2020/12/31 09:40:43;;;;;;;61.67;25.47;;;4.40;99.90;;;;;;4947443;29;20189;-96
2020/12/31 09:43:11;;;;;;;58.17;24.23;;;4.50;99.90;;;;;;4945691;29;20242;-96
2020/12/31 09:45:38;;;;;;;56.33;24.30;;;4.60;99.90;;;;;;4939581;29;20195;-95
2020/12/31 09:48:05;;;;;;;55.83;23.97;;;4.50;99.90;;;;;;4937764;29;20280;-94
2020/12/31 09:50:31;;;;;;;53.07;21.90;;;4.60;99.90;;;;;;4935778;29;20229;-94
2020/12/31 09:52:58;;;;;;;51.93;21.17;;;4.50;99.90;;;;;;4936126;29;20221;-96
2020/12/31 09:55:24;;;;;;;49.80;21.70;;;4.50;99.90;;;;;;4948507;29;20708;-95
2020/12/31 09:57:51;;;;;;;54.77;23.67;;;4.50;99.90;;;;;;4945874;29;20186;-95
2020/12/31 10:00:17;;;;;;;56.93;23.73;;;4.60;99.90;;;;;;4949157;28;20278;-92
2020/12/31 10:02:43;;;;;;;45.87;20.93;;;4.60;99.90;;;;;;4955600;29;20196;-89
2020/12/31 10:05:09;;;;;;;49.97;24.13;;;4.70;99.90;;;;;;4940417;29;20207;-91
2020/12/31 10:07:34;;;;;;;54.13;25.67;;;4.70;99.90;;;;;;4955436;28;20637;-91
2020/12/31 10:10:00;;;;;;;53.67;24.67;;;4.80;99.90;;;;;;4938924;29;20555;-91
2020/12/31 10:12:26;;;;;;;46.03;21.27;;;4.80;99.90;;;;;;4938521;29;20217;-94
2020/12/31 10:14:53;;;;;;;40.73;19.87;;;4.80;99.90;;;;;;4957931;28;20651;-96
2020/12/31 10:17:19;;;;;;;47.67;20.60;;;4.80;99.90;;;;;;4959391;28;20638;-90
2020/12/31 10:19:45;;;;;;;47.17;22.03;;;4.80;99.90;;;;;;4943333;29;20193;-94
2020/12/31 10:22:10;;;;;;;48.53;21.17;;;4.80;99.90;;;;;;4926274;29;20261;-94
2020/12/31 10:24:36;;;;;;;48.57;21.47;;;4.80;99.90;;;;;;4940114;29;20199;-95
2020/12/31 10:27:03;;;;;;;42.93;20.63;;;4.80;99.90;;;;;;4956232;29;20572;-95
2020/12/31 10:29:29;;;;;;;49.77;21.80;;;4.90;99.90;;;;;;4939550;29;20219;-94
2020/12/31 10:31:56;;;;;;;46.70;21.00;;;4.90;99.90;;;;;;4957875;28;20213;-95
2020/12/31 10:34:22;;;;;;;41.37;19.07;;;5.00;99.90;;;;;;4955104;28;20193;-92
2020/12/31 10:36:52;;;;;;;44.37;19.20;;;5.00;99.90;;;;;;4935867;29;20570;-96
2020/12/31 10:39:18;;;;;;;43.80;19.40;;;4.90;99.90;;;;;;4945689;29;20262;-96
2020/12/31 10:41:49;;;;;;;33.63;17.27;;;4.90;99.90;;;;;;4946005;29;20205;-94
2020/12/31 10:44:15;;;;;;;36.57;17.40;;;4.90;99.90;;;;;;4947295;28;20256;-96
2020/12/31 10:46:41;;;;;;;38.10;18.63;;;4.90;99.90;;;;;;4944616;29;20177;-93
2020/12/31 10:49:07;;;;;;;38.30;18.73;;;5.10;99.90;;;;;;4942279;29;20818;-94
2020/12/31 10:51:36;;;;;;;40.97;20.57;;;5.00;99.90;;;;;;4946757;28;20188;-93
2020/12/31 10:54:03;;;;;;;47.17;20.47;;;5.00;99.90;;;;;;4946706;29;20218;-95
2020/12/31 10:56:29;;;;;;;46.83;21.00;;;5.00;99.90;;;;;;4944912;29;20176;-95
2020/12/31 10:58:55;;;;;;;47.00;22.13;;;5.10;99.90;;;;;;4946415;28;20263;-94
2020/12/31 11:01:21;;;;;;;46.57;23.50;;;5.10;99.90;;;;;;4929207;29;20191;-93
2020/12/31 11:03:47;;;;;;;52.57;23.60;;;5.30;99.90;;;;;;4929290;29;20672;-93
2020/12/31 11:06:20;;;;;;;51.97;24.53;;;5.10;99.90;;;;;;4928742;29;20184;-95
2020/12/31 11:08:46;;;;;;;50.63;24.13;;;5.10;99.90;;;;;;4935121;29;20274;-92
2020/12/31 11:11:31;;;;;;;58.63;25.30;;;5.10;99.90;;;;;;4955226;28;20186;-96
2020/12/31 11:13:57;;;;;;;48.37;23.33;;;5.10;99.90;;;;;;4959802;29;20214;-96
2020/12/31 11:16:23;;;;;;;48.77;22.83;;;5.10;99.90;;;;;;4959464;28;20183;-96
2020/12/31 11:18:49;;;;;;;62.70;26.23;;;5.00;99.90;;;;;;4958756;29;20233;-94
2020/12/31 11:21:18;;;;;;;52.73;24.13;;;5.10;99.90;;;;;;4959914;28;20241;-93
2020/12/31 11:23:43;;;;;;;47.03;23.23;;;5.10;99.90;;;;;;4971762;28;20190;-94
2020/12/31 11:26:10;;;;;;;52.07;22.10;;;5.10;99.90;;;;;;4968624;29;20185;-93
2020/12/31 11:28:36;;;;;;;63.93;27.90;;;5.10;99.90;;;;;;4960018;28;20198;-90
2020/12/31 11:31:02;;;;;;;75.00;30.23;;;5.10;99.90;;;;;;4966933;28;20196;-89
2020/12/31 11:33:28;;;;;;;54.60;25.77;;;5.20;99.90;;;;;;4978748;28;20215;-89
2020/12/31 11:35:53;;;;;;;49.27;22.20;;;5.10;99.90;;;;;;4954424;29;20226;-89
2020/12/31 11:38:19;;;;;;;48.27;22.33;;;5.10;99.90;;;;;;4951498;29;20199;-89
2020/12/31 11:40:44;;;;;;;47.53;22.00;;;5.10;99.90;;;;;;4954255;29;20168;-93
2020/12/31 11:43:10;;;;;;;41.80;19.53;;;5.00;99.90;;;;;;4947575;29;20196;-90
2020/12/31 11:45:36;;;;;;;40.70;20.10;;;5.00;99.90;;;;;;4942760;29;20191;-88
2020/12/31 11:48:01;;;;;;;49.40;21.17;;;5.00;99.90;;;;;;4961978;28;20188;-91
2020/12/31 11:50:27;;;;;;;49.63;21.77;;;5.00;99.90;;;;;;4958005;29;20845;-89
2020/12/31 11:52:53;;;;;;;59.37;26.60;;;5.00;99.90;;;;;;4943491;29;20208;-91
2020/12/31 11:55:19;;;;;;;66.70;31.00;;;5.00;99.90;;;;;;4922481;29;20194;-94
2020/12/31 11:57:44;;;;;;;71.77;35.80;;;5.00;99.90;;;;;;4938408;29;20191;-94
2020/12/31 12:00:11;;;;;;;68.00;32.83;;;5.00;99.90;;;;;;4949232;29;20190;-90
2020/12/31 12:02:36;;;;;;;51.30;24.07;;;5.00;99.90;;;;;;4947310;29;20187;-95
2020/12/31 12:05:04;;;;;;;73.50;29.67;;;5.00;99.90;;;;;;4949869;29;20195;-94
2020/12/31 12:07:29;;;;;;;77.37;30.10;;;5.00;99.90;;;;;;4945863;29;20183;-95
2020/12/31 12:09:55;;;;;;;85.07;30.60;;;5.00;99.90;;;;;;4934294;29;20198;-96
2020/12/31 12:12:21;;;;;;;53.77;24.00;;;5.10;99.90;;;;;;4955908;29;20424;-94
2020/12/31 12:14:46;;;;;;;62.87;27.87;;;5.10;99.90;;;;;;4943326;29;20592;-94
2020/12/31 12:17:12;;;;;;;57.27;26.07;;;5.10;99.90;;;;;;4937033;29;20202;-95
2020/12/31 12:19:37;;;;;;;102.03;41.93;;;5.00;99.90;;;;;;4965381;28;20187;-96
2020/12/31 12:22:03;;;;;;;95.03;38.57;;;5.10;99.90;;;;;;4944063;29;20191;-93
2020/12/31 12:24:29;;;;;;;61.40;27.03;;;5.10;99.90;;;;;;4939264;29;20186;-92
2020/12/31 12:26:55;;;;;;;55.20;25.47;;;5.00;99.90;;;;;;4936626;29;20561;-92
2020/12/31 12:29:21;;;;;;;76.60;35.17;;;5.10;99.90;;;;;;4940353;29;20266;-94
2020/12/31 12:31:47;;;;;;;55.17;25.70;;;5.10;99.90;;;;;;4938042;29;20542;-94
2020/12/31 12:34:12;;;;;;;55.30;24.27;;;5.10;99.90;;;;;;4938199;29;20253;-94
2020/12/31 12:36:38;;;;;;;47.70;25.07;;;5.00;99.90;;;;;;4920866;29;20236;-93
2020/12/31 12:39:05;;;;;;;59.17;28.37;;;5.00;99.90;;;;;;4937815;29;20183;-94
2020/12/31 12:41:32;;;;;;;80.40;36.50;;;4.90;99.90;;;;;;4938297;29;20193;-95
2020/12/31 12:43:58;;;;;;;75.57;35.20;;;4.90;99.90;;;;;;4942129;29;20228;-94